Artvin — 9HA2782 — position and weather

sailwx.info

Track history (hours):
 
Tides and Currents Weather Stations Pressure Air Temp Water Temp Dewpoint Dewpoint Depression Visibility Wind Speed Wind Dir Waves Ship Positions

Artvin

Last reported at 2015-Jan-31 03:05 UTC. Time now 2015-Jan-31 05:33 UTC.
Position N 37°57' W 076°10'.

Length 229 m; draft 14.2 m.

Type: Cargo ship. MMSI: 215678000.

Date/timePositionNaut miles runAvg speedWind from/ knotsBaromVisibWave heightAir tempDewpointWater temp
2015-Jan-31 03:05N 37°57' W 076°10'712.7
2015-Jan-31 02:33N 38°03' W 076°13'4613.2
2015-Jan-30 23:03N 38°48' W 076°25'713.4
2015-Jan-30 22:33N 38°54' W 076°23'9 9.3
2015-Jan-30 21:33N 39°04' W 076°23'7 7.2
2015-Jan-30 20:33N 39°11' W 076°26'6 6.0
2015-Jan-30 19:33N 39°13' W 076°33'1 1.2
2015-Jan-30 18:33N 39°13' W 076°35'0 0.0
2015-Jan-30 17:33N 39°13' W 076°35'0 0.0
2015-Jan-30 16:33N 39°13' W 076°35'0 0.0
2015-Jan-30 15:33N 39°13' W 076°35'0 0.0
2015-Jan-30 14:33N 39°13' W 076°35'0 0.0
2015-Jan-30 13:33N 39°13' W 076°35'0 0.0
2015-Jan-30 12:33N 39°13' W 076°35'0 0.0
2015-Jan-30 11:33N 39°13' W 076°35'0 0.0
2015-Jan-30 10:33N 39°13' W 076°35'0 0.0
2015-Jan-30 09:33N 39°13' W 076°35'0 0.0
2015-Jan-30 08:30N 39°13' W 076°35'0 0.0
2015-Jan-30 07:33N 39°13' W 076°35'0 0.0
2015-Jan-30 06:33N 39°13' W 076°35'0 0.0
2015-Jan-30 05:33N 39°13' W 076°35'0 0.0
2015-Jan-30 04:30N 39°13' W 076°35'0 0.0
2015-Jan-30 03:33N 39°13' W 076°35'0 0.0
2015-Jan-30 02:33N 39°13' W 076°35'0 0.0
2015-Jan-30 01:33N 39°13' W 076°35'0 0.0
2015-Jan-30 00:33N 39°13' W 076°35'0 0.0
2015-Jan-29 23:33N 39°13' W 076°35'0 0.0
2015-Jan-29 22:33N 39°13' W 076°35'0 0.0
2015-Jan-29 21:33N 39°13' W 076°35'0 0.0
2015-Jan-29 20:33N 39°13' W 076°35'0 0.0
2015-Jan-29 19:33N 39°13' W 076°35'0 0.0
2015-Jan-29 18:33N 39°13' W 076°35'0 0.0
2015-Jan-29 17:33N 39°13' W 076°35'0 0.0
2015-Jan-29 16:33N 39°13' W 076°35'0 0.0
2015-Jan-29 15:33N 39°13' W 076°35'0 0.0
2015-Jan-29 14:33N 39°13' W 076°35'0 0.0
2015-Jan-29 13:33N 39°13' W 076°35'0 0.0
2015-Jan-29 12:33N 39°13' W 076°35'0 0.0
2015-Jan-29 11:33N 39°13' W 076°35'0 0.0
2015-Jan-29 10:33N 39°13' W 076°35'0 0.0
2015-Jan-29 09:33N 39°13' W 076°35'0 0.0
2015-Jan-29 08:33N 39°13' W 076°35'0 0.0
2015-Jan-29 07:33N 39°13' W 076°35'0 0.0
2015-Jan-29 06:32N 39°13' W 076°35'0 0.0
2015-Jan-29 05:33N 39°13' W 076°35'0 0.0
2015-Jan-29 04:32N 39°13' W 076°35'0 0.0
2015-Jan-29 03:32N 39°13' W 076°35'0 0.0
2015-Jan-29 02:33N 39°13' W 076°35'2 1.8
2015-Jan-29 01:34N 39°15' W 076°33'0 0.1
2015-Jan-29 00:32N 39°15' W 076°33'0 0.0
2015-Jan-28 23:33N 39°15' W 076°33'0 0.0
2015-Jan-28 22:32N 39°15' W 076°33'0 0.0
2015-Jan-28 21:33N 39°15' W 076°33'0 0.0
2015-Jan-28 20:33N 39°15' W 076°33'0 0.0
2015-Jan-28 19:33N 39°15' W 076°33'0 0.0
2015-Jan-28 18:33N 39°15' W 076°33'0 0.0
2015-Jan-28 17:33N 39°15' W 076°33'0 0.0
2015-Jan-28 16:32N 39°15' W 076°33'0 0.0
2015-Jan-28 15:33N 39°15' W 076°33'0 0.0
2015-Jan-28 14:33N 39°15' W 076°33'0 0.0
2015-Jan-28 13:33N 39°15' W 076°33'0 0.0
2015-Jan-28 12:33N 39°15' W 076°33'0 0.0
2015-Jan-28 11:32N 39°15' W 076°33'0 0.0
2015-Jan-28 10:33N 39°15' W 076°33'0 0.0
2015-Jan-28 09:33N 39°15' W 076°33'0 0.0
2015-Jan-28 08:33N 39°15' W 076°33'0 0.0
2015-Jan-28 07:33N 39°15' W 076°33'0 0.0
2015-Jan-28 06:32N 39°15' W 076°33'0 0.0
2015-Jan-28 05:32N 39°15' W 076°33'0 0.0
2015-Jan-28 04:29N 39°15' W 076°33'1 0.6
2015-Jan-28 03:33N 39°14' W 076°33'8 8.1
2015-Jan-28 02:33N 39°09' W 076°25'1313.4
2015-Jan-28 01:33N 38°56' W 076°23'4613.6
2015-Jan-27 22:11N 38°10' W 076°15'1214.3
2015-Jan-27 21:20N 37°58' W 076°11'  
Track history (hours):
 
Tides and Currents Weather Stations Pressure Air Temp Water Temp Dewpoint Dewpoint Depression Visibility Wind Speed Wind Dir Waves Ship Positions

Artvin

Last reported at 2015-Jan-31 03:05 UTC. Time now 2015-Jan-31 05:33 UTC.
Position N 37°57' W 076°10'.

Length 229 m; draft 14.2 m.

Type: Cargo ship. MMSI: 215678000.

Date/timePositionNaut miles runAvg speedWind from/ knotsBaromVisibWave heightAir tempDewpointWater temp
2015-Jan-31 03:05N 37°57' W 076°10'712.7
2015-Jan-31 02:33N 38°03' W 076°13'4613.2
2015-Jan-30 23:03N 38°48' W 076°25'713.4
2015-Jan-30 22:33N 38°54' W 076°23'9 9.3
2015-Jan-30 21:33N 39°04' W 076°23'7 7.2
2015-Jan-30 20:33N 39°11' W 076°26'6 6.0
2015-Jan-30 19:33N 39°13' W 076°33'1 1.2
2015-Jan-30 18:33N 39°13' W 076°35'0 0.0
2015-Jan-30 17:33N 39°13' W 076°35'0 0.0
2015-Jan-30 16:33N 39°13' W 076°35'0 0.0
2015-Jan-30 15:33N 39°13' W 076°35'0 0.0
2015-Jan-30 14:33N 39°13' W 076°35'0 0.0
2015-Jan-30 13:33N 39°13' W 076°35'0 0.0
2015-Jan-30 12:33N 39°13' W 076°35'0 0.0
2015-Jan-30 11:33N 39°13' W 076°35'0 0.0
2015-Jan-30 10:33N 39°13' W 076°35'0 0.0
2015-Jan-30 09:33N 39°13' W 076°35'0 0.0
2015-Jan-30 08:30N 39°13' W 076°35'0 0.0
2015-Jan-30 07:33N 39°13' W 076°35'0 0.0
2015-Jan-30 06:33N 39°13' W 076°35'0 0.0
2015-Jan-30 05:33N 39°13' W 076°35'0 0.0
2015-Jan-30 04:30N 39°13' W 076°35'0 0.0
2015-Jan-30 03:33N 39°13' W 076°35'0 0.0
2015-Jan-30 02:33N 39°13' W 076°35'0 0.0
2015-Jan-30 01:33N 39°13' W 076°35'0 0.0
2015-Jan-30 00:33N 39°13' W 076°35'0 0.0
2015-Jan-29 23:33N 39°13' W 076°35'0 0.0
2015-Jan-29 22:33N 39°13' W 076°35'0 0.0
2015-Jan-29 21:33N 39°13' W 076°35'0 0.0
2015-Jan-29 20:33N 39°13' W 076°35'0 0.0
2015-Jan-29 19:33N 39°13' W 076°35'0 0.0
2015-Jan-29 18:33N 39°13' W 076°35'0 0.0
2015-Jan-29 17:33N 39°13' W 076°35'0 0.0
2015-Jan-29 16:33N 39°13' W 076°35'0 0.0
2015-Jan-29 15:33N 39°13' W 076°35'0 0.0
2015-Jan-29 14:33N 39°13' W 076°35'0 0.0
2015-Jan-29 13:33N 39°13' W 076°35'0 0.0
2015-Jan-29 12:33N 39°13' W 076°35'0 0.0
2015-Jan-29 11:33N 39°13' W 076°35'0 0.0
2015-Jan-29 10:33N 39°13' W 076°35'0 0.0
2015-Jan-29 09:33N 39°13' W 076°35'0 0.0
2015-Jan-29 08:33N 39°13' W 076°35'0 0.0
2015-Jan-29 07:33N 39°13' W 076°35'0 0.0
2015-Jan-29 06:32N 39°13' W 076°35'0 0.0
2015-Jan-29 05:33N 39°13' W 076°35'0 0.0
2015-Jan-29 04:32N 39°13' W 076°35'0 0.0
2015-Jan-29 03:32N 39°13' W 076°35'0 0.0
2015-Jan-29 02:33N 39°13' W 076°35'2 1.8
2015-Jan-29 01:34N 39°15' W 076°33'0 0.1
2015-Jan-29 00:32N 39°15' W 076°33'0 0.0
2015-Jan-28 23:33N 39°15' W 076°33'0 0.0
2015-Jan-28 22:32N 39°15' W 076°33'0 0.0
2015-Jan-28 21:33N 39°15' W 076°33'0 0.0
2015-Jan-28 20:33N 39°15' W 076°33'0 0.0
2015-Jan-28 19:33N 39°15' W 076°33'0 0.0
2015-Jan-28 18:33N 39°15' W 076°33'0 0.0
2015-Jan-28 17:33N 39°15' W 076°33'0 0.0
2015-Jan-28 16:32N 39°15' W 076°33'0 0.0
2015-Jan-28 15:33N 39°15' W 076°33'0 0.0
2015-Jan-28 14:33N 39°15' W 076°33'0 0.0
2015-Jan-28 13:33N 39°15' W 076°33'0 0.0
2015-Jan-28 12:33N 39°15' W 076°33'0 0.0
2015-Jan-28 11:32N 39°15' W 076°33'0 0.0
2015-Jan-28 10:33N 39°15' W 076°33'0 0.0
2015-Jan-28 09:33N 39°15' W 076°33'0 0.0
2015-Jan-28 08:33N 39°15' W 076°33'0 0.0
2015-Jan-28 07:33N 39°15' W 076°33'0 0.0
2015-Jan-28 06:32N 39°15' W 076°33'0 0.0
2015-Jan-28 05:32N 39°15' W 076°33'0 0.0
2015-Jan-28 04:29N 39°15' W 076°33'1 0.6
2015-Jan-28 03:33N 39°14' W 076°33'8 8.1
2015-Jan-28 02:33N 39°09' W 076°25'1313.4
2015-Jan-28 01:33N 38°56' W 076°23'4613.6
2015-Jan-27 22:11N 38°10' W 076°15'1214.3
2015-Jan-27 21:20N 37°58' W 076°11'  

Dump ship's entire track history